Time;durP1;ratioP1;P1;durP2;ratioP2;P2;SDS_P1;SDS_P2;PMS_P1;PMS_P2;Temp;Humidity;BMP_temperature;BMP_pressure;BME280_temperature;BME280_humidity;BME280_pressure;Samples;Min_cycle;Max_cycle;Signal;HPM_P1;HPM_P2
2023/04/20 00:00:10;;;;;;;9.38;4.05;;;10.50;92.90;;;;;;5134084;27;20416;-70
2023/04/20 00:02:39;;;;;;;9.45;4.35;;;10.40;92.90;;;;;;5134473;27;20027;-70
2023/04/20 00:05:08;;;;;;;5.47;3.40;;;10.40;92.70;;;;;;5133840;27;20523;-71
2023/04/20 00:07:34;;;;;;;9.60;4.20;;;10.30;92.60;;;;;;5134056;27;20020;-70
2023/04/20 00:10:00;;;;;;;4.88;4.15;;;10.30;92.90;;;;;;5134434;27;20031;-70
2023/04/20 00:12:26;;;;;;;4.80;4.13;;;10.30;93.00;;;;;;5092885;27;1166816;-70
2023/04/20 00:14:52;;;;;;;7.18;4.32;;;10.20;93.10;;;;;;5134482;27;20379;-69
2023/04/20 00:17:18;;;;;;;8.93;3.92;;;10.20;93.20;;;;;;5134344;27;20101;-70
2023/04/20 00:19:45;;;;;;;5.22;4.47;;;10.10;93.20;;;;;;5130998;27;20026;-70
2023/04/20 00:22:11;;;;;;;9.55;4.20;;;10.00;93.00;;;;;;5135039;27;20027;-70
2023/04/20 00:24:37;;;;;;;9.77;3.13;;;10.00;93.00;;;;;;5134515;27;20175;-69
2023/04/20 00:27:02;;;;;;;8.70;4.07;;;10.00;93.30;;;;;;5134417;27;20110;-70
2023/04/20 00:29:28;;;;;;;8.15;3.53;;;9.80;93.10;;;;;;5129416;27;20131;-69
2023/04/20 00:31:54;;;;;;;5.63;3.53;;;9.90;92.90;;;;;;5112713;27;20035;-70
2023/04/20 00:34:20;;;;;;;8.50;4.95;;;9.90;92.90;;;;;;5132368;27;20035;-70
2023/04/20 00:36:45;;;;;;;5.60;3.95;;;9.60;92.20;;;;;;5133690;27;20130;-69
2023/04/20 00:39:11;;;;;;;8.38;3.50;;;9.70;93.20;;;;;;5134857;27;20030;-69
2023/04/20 00:41:37;;;;;;;4.78;3.50;;;9.70;92.70;;;;;;5134517;27;20110;-70
2023/04/20 00:44:03;;;;;;;6.88;4.10;;;9.70;92.90;;;;;;5132449;27;20027;-70
2023/04/20 00:46:29;;;;;;;12.05;3.83;;;9.70;92.90;;;;;;5134508;27;20472;-70
2023/04/20 00:48:55;;;;;;;5.85;3.40;;;9.70;93.10;;;;;;5134554;27;20467;-70
2023/04/20 00:51:21;;;;;;;5.18;3.50;;;9.70;93.00;;;;;;5134693;27;20421;-70
2023/04/20 00:53:47;;;;;;;7.47;3.72;;;9.70;92.80;;;;;;5134029;27;20094;-69
2023/04/20 00:56:14;;;;;;;5.25;4.05;;;9.70;93.50;;;;;;5133596;27;20101;-70
2023/04/20 00:58:41;;;;;;;8.90;4.15;;;9.80;92.80;;;;;;5133981;27;20034;-70
2023/04/20 01:01:07;;;;;;;11.43;3.88;;;9.80;93.00;;;;;;5133647;27;20027;-70
2023/04/20 01:03:34;;;;;;;8.35;3.63;;;9.80;92.80;;;;;;5133612;27;20023;-70
2023/04/20 01:06:00;;;;;;;7.35;3.83;;;9.80;93.10;;;;;;5134449;27;20034;-69
2023/04/20 01:08:27;;;;;;;6.18;3.83;;;9.80;92.90;;;;;;5133892;27;20072;-69
2023/04/20 01:10:54;;;;;;;4.20;3.80;;;9.80;93.10;;;;;;5133871;27;20532;-70
2023/04/20 01:13:19;;;;;;;6.40;3.65;;;9.80;93.00;;;;;;5132179;27;20107;-70
2023/04/20 01:15:45;;;;;;;5.90;3.35;;;9.80;93.00;;;;;;5134262;27;20106;-69
2023/04/20 01:18:11;;;;;;;5.05;3.25;;;9.80;93.10;;;;;;5132897;27;20035;-69
2023/04/20 01:20:37;;;;;;;8.40;3.80;;;9.80;93.40;;;;;;5133488;27;20023;-70
2023/04/20 01:23:02;;;;;;;5.25;4.05;;;9.80;93.20;;;;;;5133992;27;20091;-69
2023/04/20 01:25:28;;;;;;;8.35;3.55;;;9.80;94.30;;;;;;5134068;27;20562;-69
2023/04/20 01:27:54;;;;;;;4.40;3.35;;;9.70;94.30;;;;;;5132318;27;20064;-70
2023/04/20 01:30:20;;;;;;;7.93;3.88;;;9.70;94.00;;;;;;5133677;27;20031;-69
2023/04/20 01:32:46;;;;;;;6.22;3.47;;;9.60;93.90;;;;;;5134010;27;20027;-70
2023/04/20 01:35:12;;;;;;;4.35;3.17;;;9.60;93.80;;;;;;5133706;27;20485;-70
2023/04/20 01:37:39;;;;;;;6.90;3.28;;;9.60;93.70;;;;;;5133831;27;20031;-70
2023/04/20 01:40:10;;;;;;;5.60;3.15;;;9.60;93.70;;;;;;5133614;27;20027;-70
2023/04/20 01:42:36;;;;;;;7.43;3.72;;;9.50;93.70;;;;;;5133103;27;20031;-70
2023/04/20 01:45:05;;;;;;;3.83;2.55;;;9.50;93.70;;;;;;5132775;27;20015;-70
2023/04/20 01:47:30;;;;;;;6.22;3.85;;;9.50;93.70;;;;;;5133729;27;20027;-69
2023/04/20 01:49:56;;;;;;;7.32;3.85;;;9.40;94.10;;;;;;5132543;27;20056;-70
2023/04/20 01:52:22;;;;;;;8.10;3.67;;;9.40;94.00;;;;;;5132623;27;20036;-70
2023/04/20 01:54:47;;;;;;;7.80;3.58;;;9.30;94.00;;;;;;5132834;27;20783;-69
2023/04/20 01:57:13;;;;;;;7.60;3.65;;;9.20;94.60;;;;;;5131651;28;20039;-70
2023/04/20 01:59:39;;;;;;;6.72;3.97;;;9.20;94.30;;;;;;5133393;27;20035;-69
2023/04/20 02:02:04;;;;;;;7.80;3.10;;;9.20;94.30;;;;;;5133085;27;20011;-70
2023/04/20 02:04:30;;;;;;;6.38;3.03;;;9.20;94.30;;;;;;5133127;27;20027;-70
2023/04/20 02:06:56;;;;;;;8.65;3.38;;;9.20;94.20;;;;;;5132821;27;20022;-70
2023/04/20 02:09:21;;;;;;;6.03;3.70;;;9.10;94.70;;;;;;5133219;27;20547;-70
2023/04/20 02:11:47;;;;;;;5.93;2.90;;;9.20;94.80;;;;;;5132919;27;20448;-70
2023/04/20 02:14:13;;;;;;;8.05;3.30;;;9.20;94.70;;;;;;5133375;27;20115;-70
2023/04/20 02:16:39;;;;;;;7.82;3.10;;;9.20;94.60;;;;;;5133147;27;20452;-69
2023/04/20 02:19:05;;;;;;;4.18;3.28;;;9.20;94.80;;;;;;5114937;28;20140;-70
2023/04/20 02:21:30;;;;;;;6.95;3.42;;;9.20;94.70;;;;;;5133074;27;20387;-70
2023/04/20 02:23:56;;;;;;;6.28;3.63;;;9.20;94.80;;;;;;5133173;28;20093;-70
2023/04/20 02:26:22;;;;;;;6.20;3.20;;;9.20;94.80;;;;;;5130782;27;20034;-70
2023/04/20 02:28:48;;;;;;;9.32;3.30;;;9.20;95.00;;;;;;5133601;27;20023;-70
2023/04/20 02:31:13;;;;;;;6.15;3.35;;;9.20;95.00;;;;;;5131153;28;20027;-70
2023/04/20 02:33:39;;;;;;;6.88;3.33;;;9.10;95.00;;;;;;5132578;27;20127;-70
2023/04/20 02:36:05;;;;;;;3.50;3.00;;;9.20;95.00;;;;;;5132338;27;20019;-70
2023/04/20 02:38:31;;;;;;;6.63;3.33;;;9.20;95.30;;;;;;5133047;27;20019;-69
2023/04/20 02:40:57;;;;;;;5.00;3.85;;;9.10;95.20;;;;;;5132701;27;20019;-70
2023/04/20 02:43:22;;;;;;;5.50;3.45;;;9.10;95.20;;;;;;5131889;27;20043;-70
2023/04/20 02:45:48;;;;;;;7.28;3.25;;;9.00;95.10;;;;;;5133074;27;20502;-70
2023/04/20 02:48:14;;;;;;;8.57;3.75;;;9.00;94.80;;;;;;5131889;28;20482;-70
2023/04/20 02:50:41;;;;;;;6.22;3.67;;;9.00;94.60;;;;;;5132329;27;20031;-70
2023/04/20 02:53:06;;;;;;;9.45;4.10;;;8.90;94.50;;;;;;5133047;27;20548;-70
2023/04/20 02:55:32;;;;;;;5.20;3.53;;;9.00;95.00;;;;;;5134296;27;20024;-70
2023/04/20 02:57:58;;;;;;;4.88;3.42;;;8.90;95.10;;;;;;5136723;27;20019;-70
2023/04/20 03:00:23;;;;;;;4.68;3.30;;;8.90;95.40;;;;;;5134854;27;20083;-70
2023/04/20 03:02:50;;;;;;;4.88;3.20;;;8.90;95.60;;;;;;5136669;27;20026;-70
2023/04/20 03:05:16;;;;;;;7.97;3.70;;;8.80;95.50;;;;;;5136313;27;20028;-70
2023/04/20 03:07:42;;;;;;;8.05;3.70;;;8.90;95.60;;;;;;5136591;27;20030;-70
2023/04/20 03:10:08;;;;;;;4.97;3.40;;;8.80;95.30;;;;;;5136257;27;20023;-70
2023/04/20 03:12:34;;;;;;;5.05;3.08;;;8.70;95.50;;;;;;5136211;27;20043;-70
2023/04/20 03:15:00;;;;;;;5.03;3.55;;;8.70;96.00;;;;;;5136224;27;20083;-70
2023/04/20 03:17:26;;;;;;;5.50;2.95;;;8.70;96.00;;;;;;5136269;27;20027;-70
2023/04/20 03:19:51;;;;;;;7.32;3.50;;;8.70;96.00;;;;;;5136412;27;20019;-70
2023/04/20 03:22:20;;;;;;;7.43;3.78;;;8.80;95.70;;;;;;5135971;27;20054;-70
2023/04/20 03:24:46;;;;;;;10.85;3.65;;;8.70;95.90;;;;;;5135868;27;20027;-69
2023/04/20 03:27:12;;;;;;;7.35;3.67;;;8.70;95.80;;;;;;5136177;27;20056;-70
2023/04/20 03:29:37;;;;;;;10.02;3.25;;;8.80;95.90;;;;;;5135929;27;20027;-70
2023/04/20 03:32:03;;;;;;;5.78;3.63;;;8.70;95.60;;;;;;5135250;27;20061;-69
2023/04/20 03:34:29;;;;;;;4.18;3.08;;;8.80;96.10;;;;;;5135032;27;20247;-70
2023/04/20 03:36:55;;;;;;;5.13;3.20;;;8.80;96.10;;;;;;5134914;27;20475;-70
2023/04/20 03:39:20;;;;;;;8.32;3.28;;;8.80;95.90;;;;;;5134546;27;20026;-70
2023/04/20 03:41:46;;;;;;;6.88;3.42;;;8.80;96.20;;;;;;5134631;27;20023;-70
2023/04/20 03:44:13;;;;;;;8.30;3.30;;;8.80;95.80;;;;;;5135644;27;20019;-70
2023/04/20 03:46:39;;;;;;;9.07;3.63;;;8.90;96.20;;;;;;5135512;27;20399;-70
2023/04/20 03:49:05;;;;;;;8.52;3.33;;;8.80;96.90;;;;;;5134479;27;20387;-70
2023/04/20 03:51:31;;;;;;;5.60;3.58;;;8.90;96.20;;;;;;5132981;27;20087;-70
2023/04/20 03:53:57;;;;;;;7.75;3.83;;;8.90;96.50;;;;;;5134745;27;20051;-70
2023/04/20 03:56:23;;;;;;;6.55;4.15;;;8.90;96.60;;;;;;5134925;27;20073;-70
2023/04/20 03:58:48;;;;;;;6.53;3.80;;;8.90;97.20;;;;;;5135549;27;20023;-70
2023/04/20 04:01:14;;;;;;;11.15;3.45;;;9.00;97.00;;;;;;5135267;27;20096;-70
2023/04/20 04:03:40;;;;;;;5.53;3.55;;;8.90;96.80;;;;;;5133507;27;20110;-70
2023/04/20 04:06:06;;;;;;;7.88;3.50;;;9.00;97.20;;;;;;5133047;27;20052;-70
2023/04/20 04:08:32;;;;;;;6.32;3.38;;;9.00;97.40;;;;;;5135058;27;20020;-69
2023/04/20 04:10:59;;;;;;;8.30;3.78;;;9.00;97.10;;;;;;5135187;27;20060;-70
2023/04/20 04:13:24;;;;;;;5.40;3.85;;;9.00;97.30;;;;;;5135301;27;20035;-70
2023/04/20 04:15:50;;;;;;;8.25;4.40;;;9.00;97.60;;;;;;5134735;27;20033;-70
2023/04/20 04:18:16;;;;;;;6.38;3.50;;;8.90;97.60;;;;;;5135365;27;20015;-70
2023/04/20 04:20:41;;;;;;;7.10;4.47;;;9.00;97.70;;;;;;5134706;27;20023;-69
2023/04/20 04:23:07;;;;;;;9.23;4.40;;;9.00;97.50;;;;;;5134896;27;20095;-70
2023/04/20 04:25:36;;;;;;;5.82;3.88;;;9.00;97.80;;;;;;5134991;27;20427;-70
2023/04/20 04:28:02;;;;;;;6.30;4.00;;;9.00;98.30;;;;;;5134661;27;20022;-70
2023/04/20 04:30:28;;;;;;;6.95;3.83;;;9.00;97.80;;;;;;5126046;27;20035;-70
2023/04/20 04:32:54;;;;;;;5.28;4.03;;;9.00;98.10;;;;;;5117651;27;20035;-70
2023/04/20 04:35:20;;;;;;;7.10;3.72;;;9.00;98.60;;;;;;5135130;27;20479;-70
2023/04/20 04:37:46;;;;;;;6.65;3.63;;;9.00;98.90;;;;;;5134014;27;20054;-71
2023/04/20 04:40:12;;;;;;;9.88;4.40;;;9.00;99.10;;;;;;5134538;27;20506;-70
2023/04/20 04:42:37;;;;;;;7.35;3.88;;;9.00;99.30;;;;;;5134700;27;20098;-70
2023/04/20 04:45:03;;;;;;;10.30;4.72;;;9.00;99.30;;;;;;5133264;27;20024;-71
2023/04/20 04:47:41;;;;;;;6.60;3.70;;;9.10;99.50;;;;;;5134589;27;20030;-70
2023/04/20 04:50:08;;;;;;;6.20;3.90;;;9.10;99.70;;;;;;5134102;27;20023;-70
2023/04/20 04:52:33;;;;;;;7.07;3.92;;;9.20;99.90;;;;;;5133474;27;20054;-70
2023/04/20 04:54:59;;;;;;;8.73;4.25;;;9.20;99.80;;;;;;5133563;27;20463;-70
2023/04/20 04:57:25;;;;;;;5.55;4.38;;;9.20;99.90;;;;;;5134716;27;20023;-70
2023/04/20 04:59:51;;;;;;;10.07;4.85;;;9.20;99.90;;;;;;5132204;27;20019;-70
2023/04/20 05:02:16;;;;;;;7.43;4.63;;;9.10;99.90;;;;;;5134482;27;20026;-70
2023/04/20 05:04:42;;;;;;;8.55;4.70;;;9.00;99.90;;;;;;5133914;27;20048;-70
2023/04/20 05:07:10;;;;;;;7.20;4.82;;;9.00;99.90;;;;;;5133897;27;20058;-70
2023/04/20 05:09:36;;;;;;;7.50;4.78;;;8.90;99.90;;;;;;5131704;27;20463;-70
2023/04/20 05:12:02;;;;;;;11.27;5.50;;;8.80;99.90;;;;;;5134214;27;20067;-71
2023/04/20 05:14:30;;;;;;;7.13;5.38;;;8.80;99.90;;;;;;5133428;27;20023;-71
2023/04/20 05:16:57;;;;;;;8.43;5.10;;;8.70;99.90;;;;;;5132379;27;20536;-71
2023/04/20 05:19:23;;;;;;;8.45;5.68;;;8.50;99.90;;;;;;5133737;27;20016;-70
2023/04/20 05:21:49;;;;;;;14.05;5.32;;;8.50;99.90;;;;;;5133931;27;20023;-71
2023/04/20 05:24:16;;;;;;;9.02;5.72;;;8.60;99.90;;;;;;5133680;27;20026;-71
2023/04/20 05:26:42;;;;;;;10.85;5.95;;;8.60;99.90;;;;;;5132459;27;20106;-71
2023/04/20 05:29:08;;;;;;;9.10;6.18;;;8.70;99.90;;;;;;5132918;27;20550;-71
2023/04/20 05:31:34;;;;;;;13.65;5.60;;;8.60;99.90;;;;;;5132245;27;20071;-70
2023/04/20 05:34:01;;;;;;;8.15;6.70;;;8.50;99.90;;;;;;5133402;27;20026;-71
2023/04/20 05:36:28;;;;;;;8.68;6.43;;;8.50;99.90;;;;;;5132644;27;20019;-71
2023/04/20 05:38:54;;;;;;;10.43;6.53;;;8.60;99.90;;;;;;5132472;27;20387;-71
2023/04/20 05:41:25;;;;;;;11.77;6.35;;;8.50;99.90;;;;;;5133632;27;20020;-71
2023/04/20 05:43:51;;;;;;;9.07;6.65;;;8.50;99.90;;;;;;5133488;27;20035;-71
2023/04/20 05:46:17;;;;;;;8.75;6.68;;;8.60;99.90;;;;;;5133045;27;20137;-71
2023/04/20 05:48:42;;;;;;;11.27;6.43;;;8.80;99.90;;;;;;5132781;27;20081;-71
2023/04/20 05:51:08;;;;;;;9.05;6.80;;;8.90;99.90;;;;;;5133414;27;20029;-72
2023/04/20 05:53:34;;;;;;;9.68;7.28;;;8.90;99.90;;;;;;5133712;27;20027;-71
2023/04/20 05:55:59;;;;;;;8.18;6.90;;;9.00;99.90;;;;;;5129962;28;20019;-70
2023/04/20 05:58:26;;;;;;;10.80;7.18;;;9.00;99.90;;;;;;5131834;27;20360;-71
2023/04/20 06:00:52;;;;;;;11.48;8.48;;;9.10;99.90;;;;;;5129744;27;20019;-71
2023/04/20 06:03:17;;;;;;;11.68;8.98;;;9.20;99.90;;;;;;5125492;27;20080;-71
2023/04/20 06:05:43;;;;;;;12.70;8.65;;;9.20;99.90;;;;;;5123635;27;20646;-70
2023/04/20 06:08:09;;;;;;;10.30;7.90;;;9.30;99.90;;;;;;5123602;27;20035;-70
2023/04/20 06:10:34;;;;;;;14.52;7.72;;;9.30;99.90;;;;;;5129567;27;20027;-71
2023/04/20 06:13:00;;;;;;;11.77;7.85;;;9.30;99.90;;;;;;5129895;27;20475;-70
2023/04/20 06:15:26;;;;;;;12.43;7.40;;;9.30;99.90;;;;;;5120810;27;20379;-69
2023/04/20 06:17:51;;;;;;;8.35;7.45;;;9.40;99.90;;;;;;5124331;27;20031;-70
2023/04/20 06:20:18;;;;;;;11.38;8.07;;;9.50;99.90;;;;;;5123331;27;20098;-70
2023/04/20 06:22:44;;;;;;;14.23;9.00;;;9.50;99.90;;;;;;5121196;27;20019;-70
2023/04/20 06:25:10;;;;;;;9.82;7.80;;;9.50;99.90;;;;;;5128174;28;20431;-70
2023/04/20 06:27:36;;;;;;;13.35;9.40;;;9.50;99.90;;;;;;5122238;27;20031;-70
2023/04/20 06:30:03;;;;;;;14.02;8.27;;;9.50;99.90;;;;;;5127416;27;20076;-70
2023/04/20 06:32:28;;;;;;;13.98;10.88;;;9.50;99.90;;;;;;5115235;27;20118;-70
2023/04/20 06:34:54;;;;;;;11.10;8.40;;;9.40;99.90;;;;;;5116396;27;20530;-70
2023/04/20 06:37:20;;;;;;;11.43;8.68;;;9.40;99.90;;;;;;5134386;27;20464;-70
2023/04/20 06:39:46;;;;;;;12.30;7.85;;;9.50;99.90;;;;;;5137037;27;20464;-69
2023/04/20 06:42:12;;;;;;;10.45;7.95;;;9.50;99.90;;;;;;5136756;27;20035;-69
2023/04/20 06:44:39;;;;;;;14.13;7.75;;;9.50;99.90;;;;;;5136007;27;20015;-70
2023/04/20 06:47:05;;;;;;;12.27;7.45;;;9.60;99.90;;;;;;5135420;27;20031;-69
2023/04/20 06:49:30;;;;;;;9.75;7.28;;;9.50;99.90;;;;;;5136837;27;20024;-70
2023/04/20 06:51:56;;;;;;;12.57;7.10;;;9.40;99.90;;;;;;5136017;27;20031;-70
2023/04/20 06:54:22;;;;;;;12.63;6.93;;;9.30;99.90;;;;;;5136185;27;20027;-70
2023/04/20 06:56:47;;;;;;;9.48;6.50;;;9.40;99.90;;;;;;5136021;27;20047;-70
2023/04/20 06:59:16;;;;;;;16.13;7.57;;;9.40;99.90;;;;;;5136943;27;20054;-70
2023/04/20 07:01:41;;;;;;;10.70;7.00;;;9.50;99.90;;;;;;5125290;27;20523;-70
2023/04/20 07:04:07;;;;;;;13.20;7.07;;;9.40;99.90;;;;;;5114650;28;20103;-70
2023/04/20 07:06:33;;;;;;;22.02;8.18;;;9.50;99.90;;;;;;5115717;28;20028;-70
2023/04/20 07:08:58;;;;;;;9.02;6.65;;;9.50;99.90;;;;;;5113708;28;20065;-70
2023/04/20 07:11:24;;;;;;;9.70;7.18;;;9.50;99.90;;;;;;5115818;28;20070;-70
2023/04/20 07:13:50;;;;;;;10.15;7.47;;;9.50;99.90;;;;;;5103004;27;20687;-70
2023/04/20 07:16:15;;;;;;;12.07;7.10;;;9.50;99.90;;;;;;5111147;27;20526;-70
2023/04/20 07:18:41;;;;;;;11.05;6.82;;;9.60;99.90;;;;;;5122886;27;20026;-71
2023/04/20 07:21:07;;;;;;;13.40;6.80;;;9.60;99.90;;;;;;5118916;27;20072;-70
2023/04/20 07:23:33;;;;;;;13.82;6.95;;;9.60;99.90;;;;;;5117972;27;20035;-70
2023/04/20 07:25:58;;;;;;;9.02;6.88;;;9.70;99.90;;;;;;5117251;27;20016;-71
2023/04/20 07:28:24;;;;;;;11.25;6.82;;;9.70;99.90;;;;;;5116573;27;20027;-71
2023/04/20 07:30:50;;;;;;;13.07;7.05;;;9.80;99.90;;;;;;5117818;27;20030;-71
2023/04/20 07:33:16;;;;;;;7.28;5.78;;;9.90;99.90;;;;;;5117326;27;20027;-71
2023/04/20 07:35:41;;;;;;;13.00;6.88;;;9.90;99.90;;;;;;5118742;27;20034;-72
2023/04/20 07:38:07;;;;;;;9.13;6.32;;;10.00;99.90;;;;;;5117883;27;20035;-70
2023/04/20 07:40:33;;;;;;;10.35;7.28;;;10.10;99.90;;;;;;5113082;27;20011;-71
2023/04/20 07:42:58;;;;;;;9.30;6.47;;;9.90;99.90;;;;;;5121458;27;20034;-69
2023/04/20 07:45:24;;;;;;;8.20;6.15;;;10.00;99.90;;;;;;5121178;27;20023;-68
2023/04/20 07:47:51;;;;;;;10.10;6.32;;;10.10;99.90;;;;;;5117432;27;20156;-69
2023/04/20 07:50:17;;;;;;;10.18;6.32;;;10.20;99.90;;;;;;5122481;27;20027;-70
2023/04/20 07:52:43;;;;;;;11.98;6.63;;;10.20;99.90;;;;;;5119473;27;20035;-71
2023/04/20 07:55:13;;;;;;;8.57;6.13;;;10.10;99.90;;;;;;5118317;27;20023;-71
2023/04/20 07:57:39;;;;;;;8.32;6.43;;;9.90;99.90;;;;;;5117129;27;20031;-70
2023/04/20 08:00:06;;;;;;;9.55;6.72;;;9.90;99.90;;;;;;5117752;27;20059;-69
2023/04/20 08:02:32;;;;;;;10.75;6.03;;;9.90;99.90;;;;;;5120178;27;20027;-70
2023/04/20 08:04:57;;;;;;;8.73;6.57;;;9.90;99.90;;;;;;5113011;27;20483;-70
2023/04/20 08:07:23;;;;;;;10.05;6.68;;;10.00;99.90;;;;;;5119684;27;20102;-70
2023/04/20 08:09:49;;;;;;;9.48;6.32;;;10.10;99.90;;;;;;5119370;27;20058;-70
2023/04/20 08:12:15;;;;;;;8.55;6.07;;;10.10;99.90;;;;;;5113376;27;20126;-70
2023/04/20 08:14:41;;;;;;;8.63;6.97;;;10.30;99.90;;;;;;5114905;27;20160;-70
2023/04/20 08:17:07;;;;;;;10.63;6.40;;;10.50;99.90;;;;;;5118779;27;20058;-70
2023/04/20 08:19:33;;;;;;;8.65;5.82;;;10.50;99.90;;;;;;5118654;27;20031;-70
2023/04/20 08:21:58;;;;;;;6.50;5.70;;;10.50;99.90;;;;;;5112682;27;20023;-70
2023/04/20 08:24:24;;;;;;;7.75;6.20;;;10.50;99.90;;;;;;5118076;27;20375;-70
2023/04/20 08:26:50;;;;;;;8.23;5.82;;;10.40;99.90;;;;;;5117374;27;20379;-70
2023/04/20 08:29:16;;;;;;;8.52;5.45;;;10.30;99.90;;;;;;5117621;27;20112;-70
2023/04/20 08:31:42;;;;;;;10.95;5.88;;;10.20;99.90;;;;;;5120564;27;20052;-71
2023/04/20 08:34:07;;;;;;;7.78;5.70;;;10.20;99.90;;;;;;5118324;27;20120;-71
2023/04/20 08:36:33;;;;;;;7.85;5.60;;;10.20;99.90;;;;;;5117470;27;20372;-70
2023/04/20 08:39:08;;;;;;;10.80;5.80;;;10.00;99.90;;;;;;5116966;27;20026;-70
2023/04/20 08:41:34;;;;;;;9.90;5.82;;;10.20;99.90;;;;;;5114420;27;20106;-70
2023/04/20 08:44:00;;;;;;;9.35;5.80;;;10.30;99.90;;;;;;5116140;27;20030;-72
2023/04/20 08:46:26;;;;;;;6.15;5.40;;;10.40;99.90;;;;;;5116866;27;20027;-71
2023/04/20 08:48:56;;;;;;;10.65;6.10;;;10.50;99.90;;;;;;5114195;27;20098;-71
2023/04/20 08:51:22;;;;;;;13.13;5.60;;;10.60;99.90;;;;;;5116252;27;20083;-71
2023/04/20 08:53:47;;;;;;;7.18;5.32;;;10.50;99.90;;;;;;5117192;27;20022;-71
2023/04/20 08:56:13;;;;;;;9.52;5.90;;;10.70;99.90;;;;;;5117790;27;20032;-70
2023/04/20 08:58:41;;;;;;;7.63;5.90;;;10.60;99.90;;;;;;5119772;27;20024;-71
2023/04/20 09:01:10;;;;;;;6.55;5.25;;;10.50;99.90;;;;;;5115647;27;20023;-71
2023/04/20 09:03:38;;;;;;;6.85;5.47;;;10.40;99.90;;;;;;5116910;27;20019;-71
2023/04/20 09:06:05;;;;;;;7.07;5.78;;;10.40;99.90;;;;;;5120187;27;20200;-71
2023/04/20 09:08:39;;;;;;;11.93;5.82;;;10.40;99.90;;;;;;5119776;27;20039;-71
2023/04/20 09:11:05;;;;;;;7.28;5.05;;;10.30;99.90;;;;;;5119799;27;20038;-71
2023/04/20 09:13:31;;;;;;;8.85;6.20;;;10.10;99.90;;;;;;5118158;27;20036;-71
2023/04/20 09:15:57;;;;;;;9.82;5.65;;;10.10;99.90;;;;;;5117746;27;20027;-71
2023/04/20 09:18:23;;;;;;;7.65;5.65;;;10.00;99.90;;;;;;5116696;27;20023;-71
2023/04/20 09:20:49;;;;;;;6.82;5.32;;;10.10;99.90;;;;;;5118528;27;20063;-71
2023/04/20 09:23:22;;;;;;;17.80;5.93;;;10.00;99.90;;;;;;5117294;27;20034;-71
2023/04/20 09:25:52;;;;;;;9.30;5.82;;;10.10;99.90;;;;;;5120008;27;20023;-71
2023/04/20 09:28:18;;;;;;;8.18;4.95;;;10.10;99.90;;;;;;5118013;27;22702;-71
2023/04/20 09:30:45;;;;;;;7.05;5.25;;;10.20;99.90;;;;;;5117157;27;20031;-71
2023/04/20 09:33:13;;;;;;;8.23;5.10;;;10.20;99.90;;;;;;5113800;27;20077;-71
2023/04/20 09:35:43;;;;;;;8.85;4.97;;;10.20;99.90;;;;;;5114493;27;20039;-70
2023/04/20 09:38:10;;;;;;;8.13;5.47;;;10.00;99.90;;;;;;5118053;27;20102;-70
2023/04/20 09:40:36;;;;;;;8.52;5.60;;;10.10;99.90;;;;;;5115330;27;20072;-71
2023/04/20 09:43:18;;;;;;;5.47;4.40;;;10.20;99.90;;;;;;5114422;27;20036;-71
2023/04/20 09:45:44;;;;;;;7.13;4.85;;;10.10;99.90;;;;;;5113960;27;20036;-71
2023/04/20 09:48:10;;;;;;;7.40;5.05;;;10.20;99.90;;;;;;5115708;27;20026;-71
2023/04/20 09:50:37;;;;;;;5.10;4.60;;;10.30;99.90;;;;;;5122851;27;20064;-70
2023/04/20 09:53:04;;;;;;;7.32;5.03;;;10.50;99.90;;;;;;5122885;27;20382;-71
2023/04/20 09:55:30;;;;;;;6.57;4.95;;;10.50;99.90;;;;;;5117059;27;20016;-70
2023/04/20 09:57:57;;;;;;;7.30;5.18;;;10.40;99.90;;;;;;5116235;27;20032;-71
2023/04/20 10:00:24;;;;;;;8.45;5.72;;;10.60;99.90;;;;;;5118480;28;20048;-71
2023/04/20 10:02:50;;;;;;;8.02;5.97;;;10.40;99.90;;;;;;5115879;28;20487;-71
2023/04/20 10:05:16;;;;;;;6.13;5.60;;;10.60;99.90;;;;;;5118474;27;20049;-72
2023/04/20 10:07:42;;;;;;;7.38;6.50;;;10.50;99.90;;;;;;5119681;27;20028;-72
2023/04/20 10:10:12;;;;;;;9.10;7.85;;;10.70;99.90;;;;;;5122362;27;20019;-72
2023/04/20 10:12:52;;;;;;;7.57;6.18;;;10.70;99.90;;;;;;5128609;27;20054;-72
2023/04/20 10:15:20;;;;;;;8.95;6.03;;;10.90;99.90;;;;;;5115312;27;20047;-72
2023/04/20 10:17:46;;;;;;;8.30;5.95;;;10.80;99.90;;;;;;5118113;27;20115;-72
2023/04/20 10:20:26;;;;;;;7.05;6.32;;;10.70;99.90;;;;;;5120139;27;20196;-71
2023/04/20 10:22:52;;;;;;;6.72;5.57;;;10.80;99.90;;;;;;5119096;27;20558;-72
2023/04/20 10:25:21;;;;;;;6.07;5.47;;;10.70;99.90;;;;;;5120225;27;20039;-72
2023/04/20 10:28:03;;;;;;;6.78;5.18;;;10.70;99.90;;;;;;5120619;27;20027;-71
2023/04/20 10:30:30;;;;;;;6.53;5.67;;;10.70;99.90;;;;;;5119965;27;20023;-71
2023/04/20 10:33:22;;;;;;;6.68;5.68;;;10.90;99.90;;;;;;5118264;27;20031;-71
2023/04/20 10:35:53;;;;;;;8.43;5.77;;;11.20;99.90;;;;;;5111687;27;20039;-71
2023/04/20 10:38:37;;;;;;;8.70;5.70;;;11.20;99.90;;;;;;5115969;27;20019;-72
2023/04/20 10:41:11;;;;;;;8.05;5.43;;;11.10;99.90;;;;;;5119368;27;20471;-71
2023/04/20 10:43:42;;;;;;;7.40;5.20;;;11.00;99.90;;;;;;5115114;27;20110;-71
2023/04/20 10:46:18;;;;;;;5.72;5.15;;;10.90;99.90;;;;;;5118118;27;20020;-72
2023/04/20 10:48:50;;;;;;;7.25;5.18;;;10.90;99.90;;;;;;5122694;27;20011;-72
2023/04/20 10:51:17;;;;;;;5.68;5.10;;;10.90;99.90;;;;;;5125203;27;20111;-72
2023/04/20 10:53:42;;;;;;;8.50;5.30;;;11.00;99.90;;;;;;5117192;27;20032;-72
2023/04/20 10:56:09;;;;;;;8.13;5.65;;;11.00;99.90;;;;;;5123089;27;20023;-72
2023/04/20 10:58:35;;;;;;;7.80;5.40;;;11.20;99.90;;;;;;5120874;27;20054;-71
2023/04/20 11:01:03;;;;;;;6.50;5.00;;;11.10;99.90;;;;;;5119453;27;20034;-71
2023/04/20 11:03:30;;;;;;;6.22;4.93;;;11.10;99.90;;;;;;5118452;27;20019;-71
2023/04/20 11:06:00;;;;;;;7.43;5.30;;;11.00;99.90;;;;;;5118243;27;20024;-72
2023/04/20 11:08:39;;;;;;;5.75;5.15;;;10.90;99.90;;;;;;5112906;27;20023;-72
2023/04/20 11:11:16;;;;;;;7.82;5.22;;;11.00;99.90;;;;;;5113247;27;20170;-71
2023/04/20 11:13:41;;;;;;;5.63;4.70;;;10.80;99.90;;;;;;5121769;27;20047;-70
2023/04/20 11:16:12;;;;;;;5.68;4.97;;;10.70;99.90;;;;;;5121798;27;20446;-71
2023/04/20 11:18:52;;;;;;;6.78;5.80;;;10.50;99.90;;;;;;5122238;27;20023;-72
2023/04/20 11:21:18;;;;;;;9.30;6.05;;;10.50;99.90;;;;;;5124317;27;20019;-72
2023/04/20 11:23:45;;;;;;;6.38;5.28;;;10.50;99.90;;;;;;5121464;27;20057;-72
2023/04/20 11:26:10;;;;;;;7.68;5.35;;;10.80;99.90;;;;;;5121068;27;20018;-72
2023/04/20 11:28:36;;;;;;;10.50;6.00;;;10.70;99.90;;;;;;5122321;27;20015;-71
2023/04/20 11:31:02;;;;;;;7.03;5.82;;;10.80;99.90;;;;;;5117687;27;20491;-72
2023/04/20 11:33:30;;;;;;;11.80;6.30;;;10.80;99.90;;;;;;5119333;27;20016;-71
2023/04/20 11:35:59;;;;;;;12.50;5.72;;;10.70;99.90;;;;;;5122032;27;20030;-72
2023/04/20 11:38:33;;;;;;;12.25;6.55;;;10.70;99.90;;;;;;5120516;27;20421;-71
2023/04/20 11:41:03;;;;;;;7.97;6.38;;;10.70;99.90;;;;;;5118222;27;20058;-72
2023/04/20 11:43:33;;;;;;;9.30;7.03;;;10.60;99.90;;;;;;5121355;27;20049;-71
2023/04/20 11:46:01;;;;;;;9.88;7.35;;;10.40;99.90;;;;;;5119060;27;20052;-72
2023/04/20 11:48:30;;;;;;;8.57;6.30;;;10.50;99.90;;;;;;5118186;27;20537;-70
2023/04/20 11:50:56;;;;;;;13.25;7.57;;;10.60;99.90;;;;;;5116962;27;20063;-72
2023/04/20 11:53:22;;;;;;;12.45;8.32;;;10.50;99.90;;;;;;5122656;27;20076;-71
2023/04/20 11:55:48;;;;;;;11.88;9.13;;;10.20;99.90;;;;;;5117369;27;20039;-70
2023/04/20 11:58:14;;;;;;;10.18;8.57;;;10.30;99.90;;;;;;5122251;27;20020;-72
2023/04/20 12:00:39;;;;;;;13.15;9.00;;;10.20;99.90;;;;;;5121512;27;20032;-71
2023/04/20 12:03:05;;;;;;;10.80;9.05;;;10.20;99.90;;;;;;5117467;27;20035;-73
2023/04/20 12:05:31;;;;;;;13.57;9.02;;;10.30;99.90;;;;;;5122482;27;20110;-72
2023/04/20 12:07:57;;;;;;;11.93;9.18;;;10.30;99.90;;;;;;5118525;27;20099;-71
2023/04/20 12:10:22;;;;;;;12.88;9.55;;;10.50;99.90;;;;;;5118991;27;20045;-70
2023/04/20 12:12:48;;;;;;;12.70;10.18;;;10.60;99.90;;;;;;5116658;27;20102;-70
2023/04/20 12:15:14;;;;;;;10.38;9.25;;;10.60;99.90;;;;;;5121580;27;20079;-70
2023/04/20 12:17:40;;;;;;;12.27;9.43;;;10.60;99.90;;;;;;5114603;27;20056;-70
2023/04/20 12:20:07;;;;;;;13.73;9.48;;;10.70;99.90;;;;;;5119657;27;20437;-70
2023/04/20 12:22:33;;;;;;;12.35;9.70;;;10.70;99.90;;;;;;5117273;27;20494;-70
2023/04/20 12:24:59;;;;;;;16.10;10.43;;;10.90;99.90;;;;;;5117085;27;20016;-71
2023/04/20 12:27:25;;;;;;;12.57;10.30;;;11.20;99.90;;;;;;5118349;27;20027;-71
2023/04/20 12:29:51;;;;;;;11.57;9.75;;;11.60;99.90;;;;;;5122505;27;20109;-71
2023/04/20 12:32:16;;;;;;;15.45;9.80;;;11.80;99.90;;;;;;5115438;27;20084;-71
2023/04/20 12:34:42;;;;;;;13.13;10.77;;;12.30;99.90;;;;;;5116760;27;20024;-71
2023/04/20 12:37:08;;;;;;;12.13;9.43;;;12.60;99.90;;;;;;5118579;27;20931;-71
2023/04/20 12:39:34;;;;;;;11.07;8.50;;;12.80;99.90;;;;;;5117705;27;21534;-71
2023/04/20 12:42:01;;;;;;;7.22;6.50;;;12.80;99.90;;;;;;5116286;27;20024;-72
2023/04/20 12:44:27;;;;;;;9.40;6.57;;;12.60;99.90;;;;;;5117826;27;20081;-71
2023/04/20 12:46:54;;;;;;;6.90;6.25;;;12.10;99.90;;;;;;5116374;27;20015;-71